Time;durP1;ratioP1;P1;durP2;ratioP2;P2;SDS_P1;SDS_P2;PMS_P1;PMS_P2;Temp;Humidity;BMP_temperature;BMP_pressure;BME280_temperature;BME280_humidity;BME280_pressure;Samples;Min_cycle;Max_cycle;Signal;HPM_P1;HPM_P2
2023/10/12 00:02:15;;;;;;;9.30;0.80;;;;;;;10.03;100.00;100350.30;106088;1256;71123;-47
2023/10/12 00:04:43;;;;;;;3.30;0.80;;;;;;;10.04;100.00;100347.77;106988;1253;60436;-50
2023/10/12 00:07:15;;;;;;;3.20;0.70;;;;;;;10.04;100.00;100345.05;105785;1256;60472;-50
2023/10/12 00:09:48;;;;;;;6.80;0.80;;;;;;;10.05;100.00;100340.54;104690;1253;72607;-50
2023/10/12 00:12:23;;;;;;;8.00;1.10;;;;;;;10.06;100.00;100338.70;108302;1257;69498;-49
2023/10/12 00:14:54;;;;;;;2.70;0.70;;;;;;;10.07;100.00;100342.44;105422;1253;71254;-50
2023/10/12 00:17:23;;;;;;;4.30;0.80;;;;;;;10.09;100.00;100334.67;104663;1258;60641;-50
2023/10/12 00:19:51;;;;;;;2.60;1.00;;;;;;;10.11;100.00;100325.29;105021;1253;60662;-49
2023/10/12 00:22:19;;;;;;;5.00;1.30;;;;;;;10.12;100.00;100319.30;104756;1258;74392;-48
2023/10/12 00:24:46;;;;;;;4.00;0.80;;;;;;;10.13;100.00;100316.73;105167;1254;68494;-50
2023/10/12 00:27:14;;;;;;;2.40;0.90;;;;;;;10.14;100.00;100308.09;104780;1258;72708;-50
2023/10/12 00:29:44;;;;;;;7.40;0.80;;;;;;;10.16;100.00;100306.05;104643;1253;60542;-50
2023/10/12 00:32:13;;;;;;;9.10;1.00;;;;;;;10.17;100.00;100302.27;104789;1259;60436;-51
2023/10/12 00:34:46;;;;;;;4.80;0.70;;;;;;;10.18;100.00;100301.35;104606;1256;73063;-52
2023/10/12 00:37:14;;;;;;;3.30;0.70;;;;;;;10.19;100.00;100303.29;104807;1253;67635;-50
2023/10/12 00:39:58;;;;;;;4.50;1.10;;;;;;;10.21;100.00;100296.23;104893;1254;72030;-49
2023/10/12 00:42:32;;;;;;;1.70;0.60;;;;;;;10.22;100.00;100295.64;108790;1253;58884;-51
2023/10/12 00:45:18;;;;;;;4.70;1.10;;;;;;;10.22;100.00;100295.10;109164;1253;59000;-50
2023/10/12 00:47:51;;;;;;;1.70;0.70;;;;;;;10.22;100.00;100291.84;109025;1252;73986;-52
2023/10/12 00:50:19;;;;;;;9.50;0.80;;;;;;;10.23;100.00;100290.75;108894;1254;66754;-49
2023/10/12 00:52:54;;;;;;;1.60;0.80;;;;;;;10.24;100.00;100291.09;108922;1252;73223;-51
2023/10/12 00:55:34;;;;;;;2.50;0.80;;;;;;;10.27;100.00;100284.14;108811;1253;60616;-50
2023/10/12 00:58:08;;;;;;;1.60;0.70;;;;;;;10.25;100.00;100282.07;109096;1255;60525;-50
2023/10/12 01:00:46;;;;;;;7.70;0.80;;;;;;;10.25;100.00;100277.95;108943;1256;72643;-51
2023/10/12 01:03:50;;;;;;;4.10;0.70;;;;;;;10.26;100.00;100274.50;109041;1256;66910;-50
2023/10/12 01:06:20;;;;;;;6.50;1.00;;;;;;;10.26;100.00;100267.88;106156;1254;74584;-51
2023/10/12 01:08:49;;;;;;;1.60;0.80;;;;;;;10.26;100.00;100268.23;108826;1253;60290;-51
2023/10/12 01:11:21;;;;;;;4.70;0.80;;;;;;;10.25;100.00;100269.35;109091;1253;60052;-51
2023/10/12 01:13:55;;;;;;;2.90;0.60;;;;;;;10.24;100.00;100262.56;108988;1253;74037;-49
2023/10/12 01:16:23;;;;;;;9.80;0.80;;;;;;;10.23;100.00;100258.29;106932;1253;67732;-50
2023/10/12 01:18:56;;;;;;;3.10;0.70;;;;;;;10.22;100.00;100257.41;104769;1256;72149;-48
2023/10/12 01:21:24;;;;;;;2.70;0.60;;;;;;;10.21;100.00;100254.77;104744;1253;60719;-50
2023/10/12 01:23:51;;;;;;;4.90;0.70;;;;;;;10.20;100.00;100252.14;104949;1258;60504;-49
2023/10/12 01:26:20;;;;;;;3.50;0.70;;;;;;;10.19;100.00;100244.84;104959;1253;72702;-50
2023/10/12 01:28:49;;;;;;;6.60;0.80;;;;;;;10.17;100.00;100239.14;107052;1253;67421;-48
2023/10/12 01:31:24;;;;;;;2.90;0.70;;;;;;;10.15;100.00;100242.24;104952;1257;71605;-48
2023/10/12 01:33:54;;;;;;;8.40;1.10;;;;;;;10.13;100.00;100239.44;104528;1253;60572;-50
2023/10/12 01:36:23;;;;;;;4.50;0.70;;;;;;;10.12;100.00;100236.83;105654;1253;60454;-50
2023/10/12 01:38:51;;;;;;;2.90;0.80;;;;;;;10.10;100.00;100236.02;105828;1256;72634;-50
2023/10/12 01:41:25;;;;;;;2.50;0.80;;;;;;;10.07;100.00;100244.16;104679;1253;65803;-48
2023/10/12 01:43:53;;;;;;;;;;;;;;;10.05;100.00;100242.84;104706;1253;72783;-48
2023/10/12 01:46:22;;;;;;;4.10;0.60;;;;;;;10.02;100.00;100243.49;104872;1258;60546;-51
2023/10/12 01:48:50;;;;;;;2.60;0.70;;;;;;;10.01;100.00;100245.86;104939;1257;60417;-48
2023/10/12 01:51:28;;;;;;;2.90;0.70;;;;;;;9.97;100.00;100242.44;107953;1253;73936;-50
2023/10/12 01:53:56;;;;;;;2.90;0.80;;;;;;;9.93;100.00;100244.36;105445;1253;66822;-51
2023/10/12 01:56:28;;;;;;;1.80;0.70;;;;;;;9.91;100.00;100242.30;104864;1254;71487;-48
2023/10/12 01:58:56;;;;;;;5.00;0.80;;;;;;;9.90;100.00;100245.38;104802;1254;60357;-47
2023/10/12 02:01:24;;;;;;;2.60;0.90;;;;;;;9.91;100.00;100245.36;104691;1259;60563;-51
2023/10/12 02:03:55;;;;;;;3.90;0.90;;;;;;;9.88;100.00;100241.30;105805;1256;74151;-50
2023/10/12 02:06:28;;;;;;;3.40;0.70;;;;;;;9.87;100.00;100239.92;104695;1253;68035;-51
2023/10/12 02:09:14;;;;;;;2.30;0.80;;;;;;;9.84;100.00;100238.98;106137;1259;70882;-50
2023/10/12 02:11:43;;;;;;;7.80;0.80;;;;;;;9.82;100.00;100231.67;104846;1253;60549;-51
2023/10/12 02:14:12;;;;;;;4.20;0.80;;;;;;;9.80;100.00;100228.52;105211;1253;60348;-52
2023/10/12 02:16:52;;;;;;;2.60;0.80;;;;;;;9.79;100.00;100225.86;104749;1254;73762;-52
2023/10/12 02:19:31;;;;;;;5.20;0.70;;;;;;;9.76;100.00;100227.79;106186;1253;65877;-52
2023/10/12 02:22:01;;;;;;;3.00;0.80;;;;;;;9.74;100.00;100223.56;104867;1259;71495;-51
2023/10/12 02:24:29;;;;;;;9.00;0.80;;;;;;;9.73;100.00;100220.92;104761;1260;60539;-52
2023/10/12 02:27:00;;;;;;;3.90;0.80;;;;;;;9.71;100.00;100216.85;104735;1256;60624;-51
2023/10/12 02:29:29;;;;;;;4.90;0.90;;;;;;;9.70;100.00;100214.57;104680;1254;72647;-51
2023/10/12 02:31:58;;;;;;;1.10;0.60;;;;;;;9.69;100.00;100216.59;105567;1259;66001;-49
2023/10/12 02:34:28;;;;;;;8.20;0.80;;;;;;;9.68;100.00;100218.63;105033;1254;70881;-49
2023/10/12 02:39:38;;;;;;;1.90;0.60;;;;;;;9.66;100.00;100214.04;109030;1253;58927;-52
2023/10/12 02:42:17;;;;;;;3.80;0.70;;;;;;;9.63;100.00;100209.27;108938;1253;73784;-53
2023/10/12 02:47:22;;;;;;;5.50;0.90;;;;;;;9.60;100.00;100208.52;105471;1257;71459;-51
2023/10/12 02:49:59;;;;;;;5.80;0.80;;;;;;;9.59;100.00;100205.86;106979;1253;60547;-50
2023/10/12 02:52:31;;;;;;;3.00;0.80;;;;;;;9.58;100.00;100201.58;105296;1257;61108;-52
2023/10/12 02:55:07;;;;;;;6.50;1.00;;;;;;;9.58;100.00;100197.13;108981;1253;73868;-52
2023/10/12 02:57:37;;;;;;;7.90;0.80;;;;;;;9.56;100.00;100192.52;108879;1253;67015;-53
2023/10/12 03:00:12;;;;;;;1.60;0.70;;;;;;;9.55;100.00;100190.94;105170;1253;73472;-51
2023/10/12 03:02:43;;;;;;;3.70;1.10;;;;;;;9.55;100.00;100192.92;104895;1254;60486;-50
2023/10/12 03:05:17;;;;;;;6.20;0.70;;;;;;;9.55;100.00;100191.86;104875;1257;60915;-51
2023/10/12 03:07:45;;;;;;;7.20;1.10;;;;;;;9.54;100.00;100188.30;105472;1259;72666;-51
2023/10/12 03:10:31;;;;;;;6.30;1.30;;;;;;;9.53;100.00;100186.54;106412;1253;68375;-50
2023/10/12 03:13:04;;;;;;;2.30;0.80;;;;;;;9.51;100.00;100177.86;104999;1258;72735;-49
2023/10/12 03:15:41;;;;;;;5.30;1.00;;;;;;;9.49;100.00;100178.45;105908;1256;60494;-49
2023/10/12 03:18:13;;;;;;;5.00;0.80;;;;;;;9.48;100.00;100180.11;105494;1256;60485;-51
2023/10/12 03:21:00;;;;;;;5.90;0.80;;;;;;;9.48;100.00;100183.70;104691;1262;72656;-51
2023/10/12 03:23:29;;;;;;;4.30;0.70;;;;;;;9.46;100.00;100182.65;104666;1256;67463;-50
2023/10/12 03:25:56;;;;;;;7.10;1.30;;;;;;;9.45;100.00;100179.13;109097;1253;71223;-51
2023/10/12 03:28:30;;;;;;;3.50;0.80;;;;;;;9.44;100.00;100173.81;108864;1258;60454;-49
2023/10/12 03:33:53;;;;;;;3.60;0.70;;;;;;;9.39;100.00;100170.95;104744;1259;73737;-52
2023/10/12 03:36:25;;;;;;;3.70;0.80;;;;;;;9.38;100.00;100176.36;109064;1253;68141;-51
2023/10/12 03:44:21;;;;;;;3.20;0.70;;;;;;;9.36;100.00;100172.48;108729;1253;186989;-50
2023/10/12 03:47:54;;;;;;;1.70;0.70;;;;;;;9.36;100.00;100173.58;101684;1291;600655;-51
2023/10/12 03:50:21;;;;;;;2.10;0.80;;;;;;;9.35;100.00;100169.70;103866;1272;60085;-50
2023/10/12 03:52:52;;;;;;;2.30;0.80;;;;;;;9.34;100.00;100172.77;103862;1267;60502;-50
2023/10/12 03:55:26;;;;;;;4.90;0.80;;;;;;;9.33;100.00;100169.19;104015;1270;74343;-51
2023/10/12 03:58:06;;;;;;;3.50;0.70;;;;;;;9.33;100.00;100175.48;108179;1267;65680;-52
2023/10/12 04:00:46;;;;;;;1.50;0.70;;;;;;;9.31;100.00;100164.79;108015;1266;255418;-52
2023/10/12 04:03:33;;;;;;;8.30;0.80;;;;;;;9.30;100.00;100164.11;108347;1263;58903;-51
2023/10/12 04:06:14;;;;;;;2.80;0.80;;;;;;;9.29;100.00;100157.33;108285;1267;60220;-52
2023/10/12 04:08:54;;;;;;;2.20;0.90;;;;;;;9.29;100.00;100158.94;108320;1264;71256;-52
2023/10/12 04:19:03;;;;;;;2.80;0.80;;;;;;;9.27;100.00;100160.14;108112;1264;59606;-53
2023/10/12 04:21:35;;;;;;;9.60;1.20;;;;;;;9.27;100.00;100158.48;105293;1266;71847;-52
2023/10/12 04:24:27;;;;;;;2.40;0.80;;;;;;;9.26;100.00;100160.50;103835;1264;66100;-53
2023/10/12 04:27:12;;;;;;;2.80;1.50;;;;;;;9.26;100.00;100166.42;104127;1270;73389;-52
2023/10/12 04:29:40;;;;;;;5.10;0.90;;;;;;;9.26;100.00;100166.44;103897;1267;59765;-52
2023/10/12 04:32:15;;;;;;;9.30;1.00;;;;;;;9.27;100.00;100168.55;104147;1267;59715;-51
2023/10/12 04:34:49;;;;;;;2.30;0.70;;;;;;;9.27;100.00;100169.60;108201;1264;71493;-49
2023/10/12 04:37:25;;;;;;;3.50;0.90;;;;;;;9.27;100.00;100174.63;108599;1257;65608;-49
2023/10/12 04:40:16;;;;;;;5.00;1.00;;;;;;;9.27;100.00;100169.79;104645;1257;73290;-50
2023/10/12 04:42:45;;;;;;;5.30;0.90;;;;;;;9.27;100.00;100169.58;104265;1258;59779;-51
2023/10/12 04:47:46;;;;;;;4.90;0.70;;;;;;;9.28;100.00;100170.27;108572;1262;71852;-50
2023/10/12 04:50:43;;;;;;;5.60;0.80;;;;;;;9.30;100.00;100169.84;108147;1261;66596;-49
2023/10/12 04:53:12;;;;;;;3.00;0.90;;;;;;;9.32;100.00;100164.95;105510;1257;71825;-49
2023/10/12 04:55:47;;;;;;;4.00;0.90;;;;;;;9.33;100.00;100164.36;104622;1257;60757;-50
2023/10/12 04:58:35;;;;;;;4.70;0.80;;;;;;;9.35;100.00;100164.64;104496;1262;59593;-51
2023/10/12 05:04:07;;;;;;;2.90;1.00;;;;;;;9.41;100.00;100159.77;108127;1263;65739;-51
2023/10/12 05:07:08;;;;;;;2.60;0.70;;;;;;;9.44;100.00;100156.94;105207;1258;72753;-46
2023/10/12 05:09:34;;;;;;;2.20;0.80;;;;;;;9.48;100.00;100162.71;104407;1263;60295;-52
2023/10/12 05:12:02;;;;;;;6.60;1.00;;;;;;;9.52;100.00;100161.33;104683;1262;59801;-51
2023/10/12 05:14:30;;;;;;;5.00;0.90;;;;;;;9.57;100.00;100163.11;104641;1263;73123;-49
2023/10/12 05:16:58;;;;;;;2.90;0.90;;;;;;;9.63;100.00;100161.98;104615;1263;67821;-51
2023/10/12 05:19:26;;;;;;;4.80;1.10;;;;;;;9.69;100.00;100163.20;105115;1258;71457;-51
2023/10/12 05:21:55;;;;;;;7.00;1.60;;;;;;;9.77;100.00;100164.14;104578;1263;60382;-51
2023/10/12 05:24:23;;;;;;;4.80;0.70;;;;;;;9.84;100.00;100167.09;105346;1263;59805;-51
2023/10/12 05:27:09;;;;;;;8.00;0.80;;;;;;;9.91;100.00;100173.45;104291;1266;71785;-51
2023/10/12 05:29:38;;;;;;;3.30;0.80;;;;;;;9.98;100.00;100169.21;104546;1264;67415;-51
2023/10/12 05:32:06;;;;;;;2.90;0.80;;;;;;;10.05;100.00;100169.48;107333;1263;72498;-50
2023/10/12 05:39:46;;;;;;;8.40;1.10;;;;;;;10.21;100.00;100171.90;104708;1257;73046;-48
2023/10/12 05:42:14;;;;;;;4.70;0.90;;;;;;;10.27;100.00;100168.64;106562;1257;65762;-51
2023/10/12 05:44:45;;;;;;;4.00;1.10;;;;;;;10.31;100.00;100169.20;104537;1261;71567;-51
2023/10/12 05:47:12;;;;;;;7.80;1.00;;;;;;;10.35;100.00;100167.95;104520;1263;60123;-50
2023/10/12 05:49:42;;;;;;;5.40;1.10;;;;;;;10.39;100.00;100170.30;104594;1258;59760;-52
2023/10/12 05:52:10;;;;;;;2.30;0.80;;;;;;;10.42;100.00;100171.42;104611;1260;71923;-50
2023/10/12 05:54:40;;;;;;;3.20;0.90;;;;;;;10.46;100.00;100173.42;104528;1257;67512;-52
2023/10/12 05:57:21;;;;;;;7.90;0.90;;;;;;;10.48;100.00;100170.09;104607;1260;73984;-52
2023/10/12 05:59:49;;;;;;;3.20;0.80;;;;;;;10.52;100.00;100169.77;104379;1261;60192;-52
2023/10/12 06:02:17;;;;;;;4.20;1.00;;;;;;;10.55;100.00;100169.45;104484;1257;60291;-51
2023/10/12 06:04:47;;;;;;;3.20;0.80;;;;;;;10.58;100.00;100169.88;104490;1263;73176;-50
2023/10/12 06:07:15;;;;;;;5.00;1.00;;;;;;;10.61;100.00;100166.35;108725;1257;64815;-53
2023/10/12 06:09:43;;;;;;;5.00;0.80;;;;;;;10.64;100.00;100168.17;106163;1260;73087;-51
2023/10/12 06:12:13;;;;;;;7.50;1.00;;;;;;;10.68;100.00;100164.80;104593;1261;59772;-51
2023/10/12 06:14:52;;;;;;;3.30;0.70;;;;;;;10.72;100.00;100166.23;105668;1257;60947;-50
2023/10/12 06:17:39;;;;;;;4.10;1.00;;;;;;;10.77;100.00;100169.42;105950;1262;71862;-52
2023/10/12 06:20:28;;;;;;;1.50;0.80;;;;;;;10.83;100.00;100171.85;106180;1261;65631;-50
2023/10/12 06:22:56;;;;;;;5.10;0.80;;;;;;;10.89;100.00;100172.86;104707;1258;72815;-50
2023/10/12 06:25:28;;;;;;;5.20;0.90;;;;;;;10.94;100.00;100177.81;105366;1257;60508;-48
2023/10/12 06:27:55;;;;;;;3.20;0.90;;;;;;;11.01;100.00;100177.70;105355;1259;59564;-49
2023/10/12 06:30:23;;;;;;;1.60;0.80;;;;;;;11.08;100.00;100178.13;104454;1263;73685;-50
2023/10/12 06:32:51;;;;;;;8.30;0.90;;;;;;;11.16;100.00;100170.96;106357;1263;66946;-53
2023/10/12 06:37:49;;;;;;;3.30;1.00;;;;;;;11.29;100.00;100168.58;104553;1263;59728;-50
2023/10/12 06:45:46;;;;;;;2.10;0.80;;;;;;;11.56;100.00;100171.65;108697;1256;66758;-52
2023/10/12 06:51:07;;;;;;;5.10;0.90;;;;;;;11.77;100.00;100171.77;108618;1257;58940;-52
2023/10/12 06:53:35;;;;;;;3.00;0.90;;;;;;;11.89;100.00;100174.46;106598;1258;58939;-51
2023/10/12 07:04:15;;;;;;;3.00;0.80;;;;;;;12.41;100.00;100160.80;108737;1257;58836;-51
2023/10/12 07:09:48;;;;;;;4.80;0.80;;;;;;;12.70;100.00;100166.91;108154;1265;73166;-50
2023/10/12 07:12:19;;;;;;;3.80;0.90;;;;;;;12.82;100.00;100163.92;108698;1257;67680;-50
2023/10/12 07:14:47;;;;;;;2.90;0.90;;;;;;;12.95;100.00;100166.19;108716;1257;72676;-52
2023/10/12 07:17:15;;;;;;;3.90;0.90;;;;;;;13.07;100.00;100166.26;108712;1257;62194;-50
2023/10/12 07:19:49;;;;;;;4.20;0.90;;;;;;;13.20;100.00;100166.66;108649;1257;58854;-51
2023/10/12 07:22:18;;;;;;;2.40;1.00;;;;;;;13.35;100.00;100159.96;108799;1256;72834;-51
2023/10/12 07:24:52;;;;;;;4.70;0.70;;;;;;;13.47;100.00;100155.85;108739;1257;67243;-52
2023/10/12 07:27:22;;;;;;;4.30;0.70;;;;;;;13.62;100.00;100147.66;108604;1257;71438;-52
2023/10/12 07:30:43;;;;;;;4.00;0.80;;;;;;;13.78;100.00;100149.14;105647;1261;59698;-50
2023/10/12 07:32:55;;;;;;;4.50;1.30;;;;;;;13.95;100.00;100143.14;104633;1263;60065;-51
2023/10/12 07:35:34;;;;;;;5.10;0.90;;;;;;;14.09;100.00;100143.98;104414;1263;72169;-49
2023/10/12 07:38:14;;;;;;;4.10;0.90;;;;;;;14.22;100.00;100141.20;104435;1257;65764;-51
2023/10/12 07:40:56;;;;;;;2.80;0.90;;;;;;;14.34;100.00;100134.93;104669;1256;72719;-51
2023/10/12 07:43:24;;;;;;;3.70;0.70;;;;;;;14.46;100.00;100130.13;105142;1258;62505;-52
2023/10/12 07:45:52;;;;;;;2.20;1.00;;;;;;;14.56;100.00;100134.23;104533;1260;59735;-50
2023/10/12 07:48:40;;;;;;;1.50;1.00;;;;;;;14.64;100.00;100130.66;104588;1258;72285;-50
2023/10/12 07:51:15;;;;;;;5.70;1.20;;;;;;;14.74;100.00;100130.60;108372;1257;65784;-53
2023/10/12 07:53:44;;;;;;;7.90;0.90;;;;;;;14.86;100.00;100130.11;108725;1257;72441;-52
2023/10/12 07:56:17;;;;;;;3.60;0.70;;;;;;;14.96;100.00;100133.45;105606;1256;60187;-51
2023/10/12 07:58:50;;;;;;;2.70;0.80;;;;;;;15.08;100.00;100127.50;104472;1257;60082;-50
2023/10/12 08:03:58;;;;;;;8.90;1.10;;;;;;;15.31;100.00;100121.02;104743;1257;66239;-51
2023/10/12 08:09:33;;;;;;;5.40;1.10;;;;;;;15.52;100.00;100122.58;105036;1257;60560;-50
2023/10/12 08:11:53;;;;;;;2.60;0.80;;;;;;;15.62;100.00;100120.90;104761;1256;60676;-51
2023/10/12 08:22:29;;;;;;;4.20;0.80;;;;;;;15.73;100.00;100132.52;104312;1257;60494;-52
2023/10/12 08:24:59;;;;;;;3.30;1.00;;;;;;;15.74;100.00;100129.55;104439;1260;60454;-52
2023/10/12 08:27:27;;;;;;;5.00;1.30;;;;;;;15.75;100.00;100137.58;105301;1257;72548;-52
2023/10/12 08:37:35;;;;;;;3.70;1.20;;;;;;;16.05;100.00;100117.39;104660;1257;60444;-50
2023/10/12 08:40:19;;;;;;;5.70;0.80;;;;;;;16.16;100.00;100111.80;104650;1257;72628;-49
2023/10/12 08:42:58;;;;;;;3.60;1.00;;;;;;;16.27;100.00;100107.61;104768;1260;67801;-52
2023/10/12 08:45:29;;;;;;;2.30;1.00;;;;;;;16.40;100.00;100108.02;105433;1256;71426;-51
2023/10/12 08:48:02;;;;;;;2.60;0.80;;;;;;;16.50;100.00;100110.04;104604;1261;60528;-52
2023/10/12 08:50:58;;;;;;;4.00;0.90;;;;;;;16.61;100.00;100110.61;105398;1262;60506;-50
2023/10/12 08:53:26;;;;;;;3.70;0.90;;;;;;;16.73;100.00;100106.58;104261;1257;74319;-52
2023/10/12 08:55:54;;;;;;;8.60;1.70;;;;;;;16.82;100.00;100099.94;104593;1261;65060;-53
2023/10/12 08:58:39;;;;;;;6.30;1.10;;;;;;;16.91;100.00;100104.54;104289;1263;73794;-52
2023/10/12 09:01:10;;;;;;;2.60;0.90;;;;;;;17.01;100.00;100099.16;105064;1258;60579;-52
2023/10/12 09:03:44;;;;;;;4.40;1.30;;;;;;;17.10;100.00;100096.02;105190;1257;60387;-52
2023/10/12 09:06:55;;;;;;;3.80;1.10;;;;;;;17.20;100.00;100091.70;104731;1258;72963;-52
2023/10/12 09:12:11;;;;;;;6.20;0.80;;;;;;;17.41;100.00;100087.64;105422;1261;73183;-51
2023/10/12 09:14:43;;;;;;;9.20;0.80;;;;;;;17.51;100.00;100086.01;106854;1256;60682;-52
2023/10/12 09:17:40;;;;;;;4.30;0.70;;;;;;;17.62;100.00;100079.41;104815;1255;60936;-53
2023/10/12 09:20:28;;;;;;;4.70;0.70;;;;;;;17.75;100.00;100074.32;104722;1253;74004;-53
2023/10/12 09:23:03;;;;;;;4.90;0.70;;;;;;;17.86;100.00;100071.69;105229;1260;65845;-51
2023/10/12 09:25:59;;;;;;;4.40;0.90;;;;;;;17.97;100.00;100071.08;104931;1256;71473;-51
2023/10/12 09:28:42;;;;;;;3.60;1.10;;;;;;;18.09;100.00;100066.33;108810;1257;58916;-52
2023/10/12 09:31:13;;;;;;;4.60;0.80;;;;;;;18.20;100.00;100063.50;108745;1252;58843;-53
2023/10/12 09:33:48;;;;;;;1.70;0.70;;;;;;;18.31;100.00;100053.64;105690;1255;74454;-51
2023/10/12 09:36:19;;;;;;;3.40;0.70;;;;;;;18.42;100.00;100054.05;106326;1258;67310;-53
2023/10/12 09:38:46;;;;;;;5.30;0.70;;;;;;;18.50;100.00;100053.55;104868;1257;71399;-53
2023/10/12 09:41:19;;;;;;;3.90;1.00;;;;;;;18.60;100.00;100053.98;104419;1260;60397;-52
2023/10/12 09:43:47;;;;;;;6.20;0.80;;;;;;;18.68;100.00;100052.42;104679;1259;60560;-52
2023/10/12 09:46:17;;;;;;;2.30;0.80;;;;;;;18.73;100.00;100048.75;108705;1254;73838;-52
2023/10/12 09:48:44;;;;;;;6.90;0.80;;;;;;;18.78;100.00;100043.80;108944;1254;67140;-54
2023/10/12 09:51:17;;;;;;;1.10;0.70;;;;;;;18.84;100.00;100037.73;108815;1254;72843;-54
2023/10/12 09:53:57;;;;;;;4.70;0.70;;;;;;;18.92;100.00;100033.66;108850;1255;60954;-53
2023/10/12 09:56:33;;;;;;;4.90;0.80;;;;;;;19.01;100.00;100029.67;108817;1253;58821;-53
2023/10/12 09:59:15;;;;;;;1.50;0.70;;;;;;;19.09;100.00;100027.98;109001;1253;72669;-53
2023/10/12 10:09:38;;;;;;;8.70;0.80;;;;;;;19.33;100.00;99999.66;108972;1254;60098;-53
2023/10/12 10:12:08;;;;;;;3.50;0.80;;;;;;;19.38;100.00;100001.58;108959;1254;73898;-54
2023/10/12 10:14:36;;;;;;;2.00;0.80;;;;;;;19.44;100.00;99996.90;108872;1253;65801;-53
2023/10/12 10:17:10;;;;;;;2.90;0.80;;;;;;;19.48;100.00;99996.82;108911;1253;71470;-52
2023/10/12 10:19:38;;;;;;;5.20;0.90;;;;;;;19.52;100.00;99997.05;108959;1256;60544;-53
2023/10/12 10:22:05;;;;;;;2.40;0.80;;;;;;;19.58;100.00;99991.77;108898;1254;58842;-53
2023/10/12 10:24:46;;;;;;;2.90;0.70;;;;;;;19.67;100.00;99986.50;108859;1254;74048;-52
2023/10/12 10:27:14;;;;;;;4.50;0.80;;;;;;;19.75;100.00;99978.92;106102;1257;67201;-52
2023/10/12 10:29:53;;;;;;;5.80;0.80;;;;;;;19.82;100.00;99982.55;104898;1258;71479;-52
2023/10/12 10:32:36;;;;;;;3.30;0.70;;;;;;;19.89;100.00;99977.05;107981;1253;59279;-53
2023/10/12 10:35:23;;;;;;;1.10;0.70;;;;;;;19.97;100.00;99980.38;105081;1253;60569;-52
2023/10/12 10:37:59;;;;;;;2.30;0.70;;;;;;;20.03;100.00;99978.00;105319;1258;74074;-51
2023/10/12 10:40:44;;;;;;;4.10;0.90;;;;;;;20.10;100.00;99969.46;104672;1260;65689;-52
2023/10/12 10:43:15;;;;;;;2.10;0.70;;;;;;;20.16;100.00;99972.03;105576;1258;72888;-51
2023/10/12 10:45:54;;;;;;;5.30;0.70;;;;;;;20.21;100.00;99966.67;105357;1254;60448;-52
2023/10/12 10:48:26;;;;;;;2.60;0.70;;;;;;;20.26;100.00;99965.70;105333;1254;60469;-52
2023/10/12 10:51:32;;;;;;;4.00;0.80;;;;;;;20.29;100.00;99967.63;104905;1254;72678;-52
2023/10/12 10:53:59;;;;;;;6.80;0.80;;;;;;;20.30;100.00;99960.60;104584;1254;66879;-51
2023/10/12 10:56:35;;;;;;;5.30;0.70;;;;;;;20.31;100.00;99956.17;104764;1254;71483;-53
2023/10/12 10:59:13;;;;;;;4.60;0.70;;;;;;;20.32;100.00;99951.85;104943;1257;60521;-52
2023/10/12 11:01:48;;;;;;;2.30;0.60;;;;;;;20.36;100.00;99949.94;104974;1258;60854;-52
2023/10/12 11:04:44;;;;;;;2.40;0.80;;;;;;;20.38;100.00;99947.33;108875;1253;73931;-53
2023/10/12 11:07:12;;;;;;;5.70;0.70;;;;;;;20.42;100.00;99945.45;105847;1254;65819;-52
2023/10/12 11:10:05;;;;;;;10.20;0.90;;;;;;;20.43;100.00;99937.81;105510;1254;72728;-52
2023/10/12 11:12:36;;;;;;;4.90;0.80;;;;;;;20.45;100.00;99937.14;104944;1254;60431;-54
2023/10/12 11:15:09;;;;;;;5.70;0.70;;;;;;;20.47;100.00;99934.27;104632;1260;60718;-53
2023/10/12 11:17:41;;;;;;;1.40;0.60;;;;;;;20.50;100.00;99935.75;105456;1254;73836;-53
2023/10/12 11:20:35;;;;;;;5.30;0.70;;;;;;;20.55;100.00;99932.40;105475;1258;67085;-52
2023/10/12 11:23:07;;;;;;;4.80;0.80;;;;;;;20.60;100.00;99933.95;108108;1257;71448;-53
2023/10/12 11:25:39;;;;;;;5.10;0.70;;;;;;;20.64;100.00;99927.58;104834;1259;60579;-51
2023/10/12 11:28:20;;;;;;;1.50;0.60;;;;;;;20.67;100.00;99929.30;105376;1254;60382;-51
2023/10/12 11:30:51;;;;;;;2.60;1.10;;;;;;;20.71;100.00;99919.66;104835;1257;72260;-51
2023/10/12 11:33:23;;;;;;;5.60;0.80;;;;;;;20.75;100.00;99916.61;105166;1256;69009;-51
2023/10/12 11:35:54;;;;;;;4.60;0.70;;;;;;;20.77;100.00;99910.54;104558;1257;71541;-51
2023/10/12 11:38:23;;;;;;;4.30;0.80;;;;;;;20.81;100.00;99908.07;106340;1256;60521;-52
2023/10/12 11:40:55;;;;;;;3.40;0.80;;;;;;;20.85;100.00;99902.08;105513;1254;62110;-52
2023/10/12 11:43:29;;;;;;;2.70;0.70;;;;;;;20.89;100.00;99898.38;106852;1254;73870;-52
2023/10/12 11:46:04;;;;;;;4.10;0.70;;;;;;;20.94;100.00;99897.55;105786;1254;67467;-51
2023/10/12 11:48:31;;;;;;;5.20;0.80;;;;;;;20.98;100.00;99897.10;104818;1257;71470;-53
2023/10/12 11:51:10;;;;;;;2.30;0.60;;;;;;;21.01;100.00;99900.59;104789;1254;60755;-52
2023/10/12 11:53:39;;;;;;;1.80;0.80;;;;;;;21.06;100.00;99897.63;105496;1254;60402;-51
2023/10/12 11:58:41;;;;;;;5.40;0.80;;;;;;;21.11;100.00;99898.21;104845;1256;65672;-52
2023/10/12 12:01:10;;;;;;;1.90;0.60;;;;;;;21.11;100.00;99897.33;104867;1254;73438;-51
2023/10/12 12:03:39;;;;;;;3.50;1.00;;;;;;;21.09;100.00;99884.19;105167;1254;60460;-51
2023/10/12 12:06:18;;;;;;;3.90;1.00;;;;;;;21.07;100.00;99879.48;105494;1259;60481;-50
2023/10/12 12:08:46;;;;;;;3.50;0.70;;;;;;;21.04;100.00;99876.98;108959;1254;72662;-53
2023/10/12 12:11:19;;;;;;;3.90;0.90;;;;;;;21.02;100.00;99878.30;105195;1253;66690;-52
2023/10/12 12:13:52;;;;;;;5.10;0.80;;;;;;;20.98;100.00;99872.10;104799;1253;73101;-53
2023/10/12 12:16:22;;;;;;;14.30;1.50;;;;;;;20.94;100.00;99870.61;107801;1257;60568;-52
2023/10/12 12:18:51;;;;;;;6.20;0.70;;;;;;;20.91;100.00;99871.02;105472;1255;59182;-52
2023/10/12 12:21:29;;;;;;;2.50;1.00;;;;;;;20.88;100.00;99864.79;106309;1259;72713;-51
2023/10/12 12:24:00;;;;;;;2.70;0.70;;;;;;;20.85;100.00;99861.39;105594;1253;67059;-52
2023/10/12 12:26:33;;;;;;;9.00;0.90;;;;;;;20.83;100.00;99859.02;105028;1254;72689;-52
2023/10/12 12:29:04;;;;;;;2.00;0.70;;;;;;;20.82;100.00;99855.86;106417;1259;59736;-52
2023/10/12 12:31:32;;;;;;;6.90;0.90;;;;;;;20.81;100.00;99853.36;105313;1254;60437;-53
2023/10/12 12:34:06;;;;;;;3.50;0.80;;;;;;;20.81;100.00;99848.08;104782;1257;72610;-51
2023/10/12 12:36:34;;;;;;;1.80;0.70;;;;;;;20.81;100.00;99846.84;104915;1254;67037;-53
2023/10/12 12:39:09;;;;;;;2.20;1.30;;;;;;;20.81;100.00;99847.02;106218;1259;73172;-51
2023/10/12 12:41:36;;;;;;;2.10;0.80;;;;;;;20.82;100.00;99838.73;104805;1256;60674;-52
2023/10/12 12:44:08;;;;;;;2.40;0.80;;;;;;;20.82;100.00;99828.63;104714;1254;60454;-52
2023/10/12 12:46:37;;;;;;;6.00;1.00;;;;;;;20.83;100.00;99823.66;104866;1254;73911;-51
2023/10/12 12:49:06;;;;;;;6.60;0.80;;;;;;;20.83;100.00;99819.59;107368;1257;68734;-49
2023/10/12 12:51:34;;;;;;;7.10;1.10;;;;;;;20.83;100.00;99814.38;105259;1257;71468;-53
2023/10/12 12:54:02;;;;;;;3.60;1.10;;;;;;;20.82;100.00;99813.36;109157;1254;59116;-53
2023/10/12 12:56:29;;;;;;;3.50;0.90;;;;;;;20.80;100.00;99812.95;109136;1253;58832;-53
2023/10/12 12:58:57;;;;;;;5.30;0.90;;;;;;;20.78;100.00;99812.55;109137;1254;73978;-54
2023/10/12 13:01:24;;;;;;;1.20;0.80;;;;;;;20.77;100.00;99814.64;109081;1254;66833;-54
2023/10/12 13:03:55;;;;;;;3.50;0.90;;;;;;;20.74;100.00;99806.19;108967;1254;71446;-53
2023/10/12 13:06:23;;;;;;;3.70;1.30;;;;;;;20.73;100.00;99805.95;109147;1254;60593;-54
2023/10/12 13:08:51;;;;;;;4.40;0.70;;;;;;;20.71;100.00;99791.48;109222;1254;60542;-53
2023/10/12 13:11:19;;;;;;;4.80;0.60;;;;;;;20.69;100.00;99790.92;109071;1254;73840;-53
2023/10/12 13:13:47;;;;;;;3.00;0.80;;;;;;;20.68;100.00;99788.31;109080;1254;67372;-53